sensor_id;sensor_type;location;lat;lon;timestamp;pressure;altitude;pressure_sealevel;temperature;humidity
76484;BME280;65318;-33.924;18.406;2023-06-19T00:00:27;98648.50;;;16.68;62.72
76484;BME280;65318;-33.924;18.406;2023-06-19T00:02:53;98649.56;;;16.73;62.66
76484;BME280;65318;-33.924;18.406;2023-06-19T00:05:18;98646.67;;;16.45;62.67
76484;BME280;65318;-33.924;18.406;2023-06-19T00:07:44;98639.98;;;16.82;62.47
76484;BME280;65318;-33.924;18.406;2023-06-19T00:10:09;98644.17;;;17.05;62.33
76484;BME280;65318;-33.924;18.406;2023-06-19T00:12:35;98640.59;;;16.80;62.36
76484;BME280;65318;-33.924;18.406;2023-06-19T00:15:00;98650.84;;;16.52;62.54
76484;BME280;65318;-33.924;18.406;2023-06-19T00:17:27;98644.84;;;16.43;62.75
76484;BME280;65318;-33.924;18.406;2023-06-19T00:19:52;98635.26;;;16.37;62.87
76484;BME280;65318;-33.924;18.406;2023-06-19T00:22:17;98639.17;;;16.55;62.53
76484;BME280;65318;-33.924;18.406;2023-06-19T00:24:42;98645.41;;;17.15;62.09
76484;BME280;65318;-33.924;18.406;2023-06-19T00:27:08;98630.66;;;16.67;62.68
76484;BME280;65318;-33.924;18.406;2023-06-19T00:29:33;98634.62;;;16.60;62.30
76484;BME280;65318;-33.924;18.406;2023-06-19T00:31:59;98633.56;;;16.94;62.02
76484;BME280;65318;-33.924;18.406;2023-06-19T00:34:25;98620.81;;;17.04;61.92
76484;BME280;65318;-33.924;18.406;2023-06-19T00:36:50;98624.62;;;16.46;62.71
76484;BME280;65318;-33.924;18.406;2023-06-19T00:39:16;98609.06;;;16.67;62.25
76484;BME280;65318;-33.924;18.406;2023-06-19T00:41:42;98624.57;;;16.78;62.53
76484;BME280;65318;-33.924;18.406;2023-06-19T00:44:07;98622.56;;;17.11;62.32
76484;BME280;65318;-33.924;18.406;2023-06-19T00:46:33;98630.99;;;16.80;62.52
76484;BME280;65318;-33.924;18.406;2023-06-19T00:48:58;98627.10;;;16.32;63.06
76484;BME280;65318;-33.924;18.406;2023-06-19T00:51:23;98605.45;;;16.37;63.48
76484;BME280;65318;-33.924;18.406;2023-06-19T00:53:49;98608.49;;;16.40;62.87
76484;BME280;65318;-33.924;18.406;2023-06-19T00:56:15;98599.23;;;16.84;62.63
76484;BME280;65318;-33.924;18.406;2023-06-19T00:58:40;98580.00;;;17.17;62.28
76484;BME280;65318;-33.924;18.406;2023-06-19T01:01:05;98596.28;;;16.42;62.85
76484;BME280;65318;-33.924;18.406;2023-06-19T01:05:57;98579.96;;;16.73;62.68
76484;BME280;65318;-33.924;18.406;2023-06-19T01:10:51;98586.20;;;16.62;62.41
76484;BME280;65318;-33.924;18.406;2023-06-19T01:13:19;98567.03;;;16.62;62.42
76484;BME280;65318;-33.924;18.406;2023-06-19T01:15:39;98561.96;;;17.11;62.47
76484;BME280;65318;-33.924;18.406;2023-06-19T01:18:04;98538.81;;;16.53;62.71
76484;BME280;65318;-33.924;18.406;2023-06-19T01:20:29;98534.69;;;16.82;62.59
76484;BME280;65318;-33.924;18.406;2023-06-19T01:22:54;98538.24;;;16.60;62.62
76484;BME280;65318;-33.924;18.406;2023-06-19T01:25:20;98521.02;;;16.64;62.91
76484;BME280;65318;-33.924;18.406;2023-06-19T01:27:45;98531.31;;;16.79;62.64
76484;BME280;65318;-33.924;18.406;2023-06-19T01:30:12;98527.95;;;17.06;62.12
76484;BME280;65318;-33.924;18.406;2023-06-19T01:32:44;98542.42;;;16.94;62.90
76484;BME280;65318;-33.924;18.406;2023-06-19T01:35:02;98531.37;;;17.02;62.12
76484;BME280;65318;-33.924;18.406;2023-06-19T01:37:27;98544.22;;;16.32;63.32
76484;BME280;65318;-33.924;18.406;2023-06-19T01:39:54;98537.10;;;16.79;62.15
76484;BME280;65318;-33.924;18.406;2023-06-19T01:42:18;98529.38;;;17.00;62.74
76484;BME280;65318;-33.924;18.406;2023-06-19T01:44:44;98534.98;;;16.43;63.03
76484;BME280;65318;-33.924;18.406;2023-06-19T01:47:11;98518.67;;;17.00;62.85
76484;BME280;65318;-33.924;18.406;2023-06-19T01:49:35;98514.55;;;16.68;63.04
76484;BME280;65318;-33.924;18.406;2023-06-19T01:52:00;98508.43;;;16.66;63.08
76484;BME280;65318;-33.924;18.406;2023-06-19T01:54:26;98510.90;;;16.81;62.25
76484;BME280;65318;-33.924;18.406;2023-06-19T01:56:52;98502.42;;;16.85;63.13
76484;BME280;65318;-33.924;18.406;2023-06-19T01:59:17;98507.84;;;16.28;63.54
76484;BME280;65318;-33.924;18.406;2023-06-19T02:01:42;98518.37;;;16.96;63.09
76484;BME280;65318;-33.924;18.406;2023-06-19T02:04:08;98515.77;;;16.80;62.95
76484;BME280;65318;-33.924;18.406;2023-06-19T02:06:34;98512.28;;;16.59;62.92
76484;BME280;65318;-33.924;18.406;2023-06-19T02:08:59;98503.64;;;16.74;63.12
76484;BME280;65318;-33.924;18.406;2023-06-19T02:11:25;98505.37;;;16.86;62.80
76484;BME280;65318;-33.924;18.406;2023-06-19T02:13:50;98508.72;;;16.65;63.38
76484;BME280;65318;-33.924;18.406;2023-06-19T02:16:16;98502.11;;;16.89;62.93
76484;BME280;65318;-33.924;18.406;2023-06-19T02:18:41;98510.05;;;16.69;62.70
76484;BME280;65318;-33.924;18.406;2023-06-19T02:21:07;98509.52;;;16.65;63.40
76484;BME280;65318;-33.924;18.406;2023-06-19T02:23:32;98506.99;;;16.53;63.82
76484;BME280;65318;-33.924;18.406;2023-06-19T02:25:58;98524.33;;;17.17;62.91
76484;BME280;65318;-33.924;18.406;2023-06-19T02:28:23;98546.76;;;16.94;62.91
76484;BME280;65318;-33.924;18.406;2023-06-19T02:30:49;98533.68;;;16.58;63.68
76484;BME280;65318;-33.924;18.406;2023-06-19T02:33:14;98517.40;;;16.29;63.84
76484;BME280;65318;-33.924;18.406;2023-06-19T02:35:40;98515.36;;;16.79;63.25
76484;BME280;65318;-33.924;18.406;2023-06-19T02:38:05;98524.89;;;16.63;63.56
76484;BME280;65318;-33.924;18.406;2023-06-19T02:40:31;98517.15;;;16.54;63.19
76484;BME280;65318;-33.924;18.406;2023-06-19T02:42:56;98534.49;;;16.51;63.29
76484;BME280;65318;-33.924;18.406;2023-06-19T02:45:22;98512.80;;;16.65;63.54
76484;BME280;65318;-33.924;18.406;2023-06-19T02:47:47;98520.96;;;16.78;63.20
76484;BME280;65318;-33.924;18.406;2023-06-19T02:50:13;98515.82;;;16.37;63.61
76484;BME280;65318;-33.924;18.406;2023-06-19T02:52:38;98529.56;;;16.81;63.06
76484;BME280;65318;-33.924;18.406;2023-06-19T02:55:04;98517.80;;;16.84;63.59
76484;BME280;65318;-33.924;18.406;2023-06-19T02:57:30;98522.69;;;16.30;63.78
76484;BME280;65318;-33.924;18.406;2023-06-19T02:59:55;98513.35;;;16.51;63.39
76484;BME280;65318;-33.924;18.406;2023-06-19T03:02:20;98524.63;;;16.54;63.17
76484;BME280;65318;-33.924;18.406;2023-06-19T03:04:46;98507.51;;;16.71;63.36
76484;BME280;65318;-33.924;18.406;2023-06-19T03:07:12;98518.57;;;16.92;63.50
76484;BME280;65318;-33.924;18.406;2023-06-19T03:09:37;98497.55;;;16.67;63.41
76484;BME280;65318;-33.924;18.406;2023-06-19T03:14:28;98496.65;;;16.42;63.46
76484;BME280;65318;-33.924;18.406;2023-06-19T03:16:53;98491.06;;;16.84;63.07
76484;BME280;65318;-33.924;18.406;2023-06-19T03:19:19;98504.79;;;16.98;63.27
76484;BME280;65318;-33.924;18.406;2023-06-19T03:21:44;98500.71;;;17.08;62.96
76484;BME280;65318;-33.924;18.406;2023-06-19T03:24:10;98491.37;;;16.78;63.08
76484;BME280;65318;-33.924;18.406;2023-06-19T03:26:35;98507.96;;;16.77;63.17
76484;BME280;65318;-33.924;18.406;2023-06-19T03:29:01;98516.15;;;16.89;63.33
76484;BME280;65318;-33.924;18.406;2023-06-19T03:31:27;98486.04;;;16.72;63.22
76484;BME280;65318;-33.924;18.406;2023-06-19T03:33:52;98481.77;;;16.80;63.52
76484;BME280;65318;-33.924;18.406;2023-06-19T03:36:17;98469.85;;;16.71;63.17
76484;BME280;65318;-33.924;18.406;2023-06-19T03:38:43;98485.23;;;16.95;63.07
76484;BME280;65318;-33.924;18.406;2023-06-19T03:41:09;98488.75;;;16.91;63.35
76484;BME280;65318;-33.924;18.406;2023-06-19T03:43:34;98478.17;;;16.62;63.86
76484;BME280;65318;-33.924;18.406;2023-06-19T03:45:59;98477.00;;;16.38;63.79
76484;BME280;65318;-33.924;18.406;2023-06-19T03:48:25;98475.23;;;16.33;64.15
76484;BME280;65318;-33.924;18.406;2023-06-19T03:50:50;98478.61;;;16.23;64.28
76484;BME280;65318;-33.924;18.406;2023-06-19T03:53:15;98488.46;;;16.51;64.52
76484;BME280;65318;-33.924;18.406;2023-06-19T03:55:41;98502.20;;;16.39;64.75
76484;BME280;65318;-33.924;18.406;2023-06-19T03:58:07;98487.67;;;17.13;64.36
76484;BME280;65318;-33.924;18.406;2023-06-19T04:00:33;98463.02;;;15.95;66.14
76484;BME280;65318;-33.924;18.406;2023-06-19T04:02:57;98486.89;;;16.43;65.75
76484;BME280;65318;-33.924;18.406;2023-06-19T04:05:23;98480.81;;;16.42;65.82
76484;BME280;65318;-33.924;18.406;2023-06-19T04:07:49;98496.18;;;15.93;66.62
76484;BME280;65318;-33.924;18.406;2023-06-19T04:10:14;98485.72;;;16.77;65.99
76484;BME280;65318;-33.924;18.406;2023-06-19T04:12:39;98550.24;;;16.37;65.80
76484;BME280;65318;-33.924;18.406;2023-06-19T04:15:06;98548.83;;;16.30;66.87
76484;BME280;65318;-33.924;18.406;2023-06-19T04:17:31;98567.84;;;16.76;65.80
76484;BME280;65318;-33.924;18.406;2023-06-19T04:19:56;98531.88;;;16.60;65.33
76484;BME280;65318;-33.924;18.406;2023-06-19T04:22:22;98537.51;;;16.17;66.40
76484;BME280;65318;-33.924;18.406;2023-06-19T04:24:47;98540.49;;;16.49;66.60
76484;BME280;65318;-33.924;18.406;2023-06-19T04:27:12;98551.88;;;16.48;65.96
76484;BME280;65318;-33.924;18.406;2023-06-19T04:29:38;98558.24;;;16.88;65.43
76484;BME280;65318;-33.924;18.406;2023-06-19T04:32:04;98565.87;;;16.53;66.39
76484;BME280;65318;-33.924;18.406;2023-06-19T04:34:30;98566.98;;;16.27;66.40
76484;BME280;65318;-33.924;18.406;2023-06-19T04:36:54;98564.14;;;16.20;66.89
76484;BME280;65318;-33.924;18.406;2023-06-19T04:39:20;98560.29;;;16.99;65.53
76484;BME280;65318;-33.924;18.406;2023-06-19T04:41:45;98567.42;;;16.85;65.81
76484;BME280;65318;-33.924;18.406;2023-06-19T04:44:12;98576.20;;;16.31;65.20
76484;BME280;65318;-33.924;18.406;2023-06-19T04:46:37;98573.47;;;17.10;64.95
76484;BME280;65318;-33.924;18.406;2023-06-19T04:49:02;98585.96;;;16.83;64.78
76484;BME280;65318;-33.924;18.406;2023-06-19T04:51:28;98588.81;;;16.45;65.68
76484;BME280;65318;-33.924;18.406;2023-06-19T04:53:53;98591.74;;;16.59;65.10
76484;BME280;65318;-33.924;18.406;2023-06-19T04:56:19;98594.75;;;16.50;65.18
76484;BME280;65318;-33.924;18.406;2023-06-19T04:58:44;98604.71;;;16.71;65.13
76484;BME280;65318;-33.924;18.406;2023-06-19T05:01:09;98604.25;;;16.93;65.12
76484;BME280;65318;-33.924;18.406;2023-06-19T05:03:35;98599.07;;;16.66;65.05
76484;BME280;65318;-33.924;18.406;2023-06-19T05:06:01;98607.07;;;16.71;64.67
76484;BME280;65318;-33.924;18.406;2023-06-19T05:08:26;98615.60;;;16.76;65.05
76484;BME280;65318;-33.924;18.406;2023-06-19T05:10:52;98627.38;;;16.46;64.65
76484;BME280;65318;-33.924;18.406;2023-06-19T05:13:17;98625.47;;;16.51;64.83
76484;BME280;65318;-33.924;18.406;2023-06-19T05:15:42;98636.50;;;16.83;64.67
76484;BME280;65318;-33.924;18.406;2023-06-19T05:18:08;98641.33;;;16.59;64.51
76484;BME280;65318;-33.924;18.406;2023-06-19T05:20:34;98641.06;;;16.62;64.37
76484;BME280;65318;-33.924;18.406;2023-06-19T05:22:59;98663.53;;;16.25;64.51
76484;BME280;65318;-33.924;18.406;2023-06-19T05:25:25;98672.71;;;16.10;64.99
76484;BME280;65318;-33.924;18.406;2023-06-19T05:27:50;98672.00;;;16.60;64.32
76484;BME280;65318;-33.924;18.406;2023-06-19T05:30:16;98682.79;;;16.46;64.67
76484;BME280;65318;-33.924;18.406;2023-06-19T05:32:41;98676.98;;;16.28;64.97
76484;BME280;65318;-33.924;18.406;2023-06-19T05:35:07;98687.02;;;16.75;64.49
76484;BME280;65318;-33.924;18.406;2023-06-19T05:37:33;98693.17;;;16.30;64.88
76484;BME280;65318;-33.924;18.406;2023-06-19T05:39:58;98690.57;;;16.37;64.71
76484;BME280;65318;-33.924;18.406;2023-06-19T05:42:23;98711.91;;;16.09;64.70
76484;BME280;65318;-33.924;18.406;2023-06-19T05:44:49;98700.17;;;16.71;64.19
76484;BME280;65318;-33.924;18.406;2023-06-19T05:47:14;98696.12;;;15.83;65.12
76484;BME280;65318;-33.924;18.406;2023-06-19T05:49:39;98719.70;;;16.38;63.99
76484;BME280;65318;-33.924;18.406;2023-06-19T05:52:06;98727.47;;;16.12;64.33
76484;BME280;65318;-33.924;18.406;2023-06-19T05:54:31;98733.41;;;16.63;63.67
76484;BME280;65318;-33.924;18.406;2023-06-19T05:56:56;98750.25;;;16.54;64.33
76484;BME280;65318;-33.924;18.406;2023-06-19T05:59:22;98765.30;;;16.54;64.19
76484;BME280;65318;-33.924;18.406;2023-06-19T06:01:47;98764.36;;;16.53;64.35
76484;BME280;65318;-33.924;18.406;2023-06-19T06:04:12;98763.49;;;16.73;63.89
76484;BME280;65318;-33.924;18.406;2023-06-19T06:06:38;98764.75;;;16.22;64.38
76484;BME280;65318;-33.924;18.406;2023-06-19T06:09:03;98747.60;;;16.13;64.56
76484;BME280;65318;-33.924;18.406;2023-06-19T06:11:29;98741.52;;;16.55;64.21
76484;BME280;65318;-33.924;18.406;2023-06-19T06:13:54;98748.71;;;16.44;64.18
76484;BME280;65318;-33.924;18.406;2023-06-19T06:16:20;98743.58;;;16.97;63.82
76484;BME280;65318;-33.924;18.406;2023-06-19T06:18:45;98754.60;;;17.28;63.29
76484;BME280;65318;-33.924;18.406;2023-06-19T06:21:11;98754.38;;;17.22;63.56
76484;BME280;65318;-33.924;18.406;2023-06-19T06:23:37;98766.32;;;16.75;63.57
76484;BME280;65318;-33.924;18.406;2023-06-19T06:26:02;98759.10;;;17.67;62.53
76484;BME280;65318;-33.924;18.406;2023-06-19T06:28:28;98806.87;;;16.72;64.07
76484;BME280;65318;-33.924;18.406;2023-06-19T06:30:53;98809.28;;;17.01;63.27
76484;BME280;65318;-33.924;18.406;2023-06-19T06:33:18;98799.88;;;16.90;63.80
76484;BME280;65318;-33.924;18.406;2023-06-19T06:35:44;98810.39;;;18.08;61.30
76484;BME280;65318;-33.924;18.406;2023-06-19T06:38:10;98802.25;;;17.06;63.89
76484;BME280;65318;-33.924;18.406;2023-06-19T06:40:35;98799.38;;;16.81;63.36
76484;BME280;65318;-33.924;18.406;2023-06-19T06:43:01;98805.71;;;16.91;63.05
76484;BME280;65318;-33.924;18.406;2023-06-19T06:45:26;98804.74;;;17.15;63.62
76484;BME280;65318;-33.924;18.406;2023-06-19T06:47:52;98811.70;;;16.86;63.75
76484;BME280;65318;-33.924;18.406;2023-06-19T06:50:17;98819.44;;;16.82;63.76
76484;BME280;65318;-33.924;18.406;2023-06-19T06:52:43;98824.77;;;16.68;64.08
76484;BME280;65318;-33.924;18.406;2023-06-19T06:55:08;98831.31;;;16.82;63.70
76484;BME280;65318;-33.924;18.406;2023-06-19T06:57:34;98837.32;;;16.93;63.39
76484;BME280;65318;-33.924;18.406;2023-06-19T07:00:00;98838.16;;;17.61;61.81
76484;BME280;65318;-33.924;18.406;2023-06-19T07:02:26;98857.74;;;16.78;63.67
76484;BME280;65318;-33.924;18.406;2023-06-19T07:04:50;98818.68;;;16.79;63.58
76484;BME280;65318;-33.924;18.406;2023-06-19T07:07:16;98824.20;;;16.59;63.55
76484;BME280;65318;-33.924;18.406;2023-06-19T07:09:41;98838.15;;;16.54;63.54
76484;BME280;65318;-33.924;18.406;2023-06-19T07:12:08;98840.08;;;16.64;63.83
76484;BME280;65318;-33.924;18.406;2023-06-19T07:14:33;98842.91;;;16.60;63.89
76484;BME280;65318;-33.924;18.406;2023-06-19T07:16:58;98851.39;;;16.21;64.81
76484;BME280;65318;-33.924;18.406;2023-06-19T07:19:24;98853.61;;;17.01;62.56
76484;BME280;65318;-33.924;18.406;2023-06-19T07:21:50;98858.87;;;17.71;62.10
76484;BME280;65318;-33.924;18.406;2023-06-19T07:24:15;98873.25;;;16.93;64.08
76484;BME280;65318;-33.924;18.406;2023-06-19T07:26:40;98874.08;;;16.18;64.84
76484;BME280;65318;-33.924;18.406;2023-06-19T07:29:06;98878.94;;;16.62;64.92
76484;BME280;65318;-33.924;18.406;2023-06-19T07:31:32;98882.79;;;16.60;64.88
76484;BME280;65318;-33.924;18.406;2023-06-19T07:33:57;98886.69;;;17.57;62.11
76484;BME280;65318;-33.924;18.406;2023-06-19T07:36:23;98900.28;;;16.89;64.66
76484;BME280;65318;-33.924;18.406;2023-06-19T07:38:48;98904.04;;;17.33;64.09
76484;BME280;65318;-33.924;18.406;2023-06-19T07:41:13;98901.14;;;16.63;64.50
76484;BME280;65318;-33.924;18.406;2023-06-19T07:43:39;98906.32;;;16.78;64.37
76484;BME280;65318;-33.924;18.406;2023-06-19T07:46:05;98918.24;;;16.88;64.71
76484;BME280;65318;-33.924;18.406;2023-06-19T07:48:31;98930.10;;;16.55;65.06
76484;BME280;65318;-33.924;18.406;2023-06-19T07:50:56;98933.29;;;16.94;64.65
76484;BME280;65318;-33.924;18.406;2023-06-19T07:53:22;98937.74;;;16.44;66.13
76484;BME280;65318;-33.924;18.406;2023-06-19T07:55:47;98943.42;;;16.28;66.46
76484;BME280;65318;-33.924;18.406;2023-06-19T07:58:12;98934.78;;;17.00;66.14
76484;BME280;65318;-33.924;18.406;2023-06-19T08:00:38;98934.05;;;17.08;65.61
76484;BME280;65318;-33.924;18.406;2023-06-19T08:03:03;98948.56;;;17.10;66.65
76484;BME280;65318;-33.924;18.406;2023-06-19T08:05:28;98955.43;;;16.86;68.60
76484;BME280;65318;-33.924;18.406;2023-06-19T08:07:55;98945.36;;;17.38;66.01
76484;BME280;65318;-33.924;18.406;2023-06-19T08:10:20;98942.95;;;17.51;65.36
76484;BME280;65318;-33.924;18.406;2023-06-19T08:12:45;98956.16;;;17.50;65.79
76484;BME280;65318;-33.924;18.406;2023-06-19T08:15:11;98956.50;;;17.98;64.55
76484;BME280;65318;-33.924;18.406;2023-06-19T08:17:36;98971.47;;;18.23;64.11
76484;BME280;65318;-33.924;18.406;2023-06-19T08:20:02;98969.22;;;17.48;66.15
76484;BME280;65318;-33.924;18.406;2023-06-19T08:22:27;98982.51;;;17.91;65.27
76484;BME280;65318;-33.924;18.406;2023-06-19T08:24:53;98975.16;;;18.35;63.91
76484;BME280;65318;-33.924;18.406;2023-06-19T08:27:18;98987.56;;;18.29;63.75
76484;BME280;65318;-33.924;18.406;2023-06-19T08:29:43;98992.75;;;18.39;63.62
76484;BME280;65318;-33.924;18.406;2023-06-19T08:32:09;98997.04;;;18.47;63.44
76484;BME280;65318;-33.924;18.406;2023-06-19T08:34:34;98987.96;;;17.94;65.16
76484;BME280;65318;-33.924;18.406;2023-06-19T08:37:00;98985.80;;;17.75;65.37
76484;BME280;65318;-33.924;18.406;2023-06-19T08:39:25;99008.43;;;18.21;63.98
76484;BME280;65318;-33.924;18.406;2023-06-19T08:41:51;99011.57;;;18.38;63.91
76484;BME280;65318;-33.924;18.406;2023-06-19T08:44:16;99008.35;;;18.38;63.25
76484;BME280;65318;-33.924;18.406;2023-06-19T08:46:42;98999.65;;;18.29;63.33
76484;BME280;65318;-33.924;18.406;2023-06-19T08:49:08;99013.31;;;18.24;63.47
76484;BME280;65318;-33.924;18.406;2023-06-19T08:51:33;99017.51;;;18.97;62.06
76484;BME280;65318;-33.924;18.406;2023-06-19T08:54:02;99014.97;;;17.90;63.97
76484;BME280;65318;-33.924;18.406;2023-06-19T08:56:24;99031.60;;;18.49;62.74
76484;BME280;65318;-33.924;18.406;2023-06-19T08:58:49;99034.22;;;18.13;63.70
76484;BME280;65318;-33.924;18.406;2023-06-19T09:01:18;99047.21;;;18.17;63.56
76484;BME280;65318;-33.924;18.406;2023-06-19T09:03:40;99043.63;;;18.46;62.78
76484;BME280;65318;-33.924;18.406;2023-06-19T09:06:07;99052.38;;;18.09;62.93
76484;BME280;65318;-33.924;18.406;2023-06-19T09:08:31;99054.29;;;17.86;63.61
76484;BME280;65318;-33.924;18.406;2023-06-19T09:10:57;99042.85;;;18.23;62.83
76484;BME280;65318;-33.924;18.406;2023-06-19T09:13:22;99060.01;;;17.98;64.12
76484;BME280;65318;-33.924;18.406;2023-06-19T09:15:47;99057.03;;;18.04;63.58
76484;BME280;65318;-33.924;18.406;2023-06-19T09:18:12;99052.96;;;18.34;63.53
76484;BME280;65318;-33.924;18.406;2023-06-19T09:20:39;99049.67;;;18.43;63.59
76484;BME280;65318;-33.924;18.406;2023-06-19T09:23:03;99048.88;;;18.76;62.19
76484;BME280;65318;-33.924;18.406;2023-06-19T09:25:29;99047.40;;;18.54;63.02
76484;BME280;65318;-33.924;18.406;2023-06-19T09:27:55;99039.72;;;19.04;62.32
76484;BME280;65318;-33.924;18.406;2023-06-19T09:30:20;99056.53;;;18.19;62.97
76484;BME280;65318;-33.924;18.406;2023-06-19T09:32:45;99055.03;;;18.30;63.12
76484;BME280;65318;-33.924;18.406;2023-06-19T09:35:10;99062.05;;;18.20;63.30
76484;BME280;65318;-33.924;18.406;2023-06-19T09:37:39;99061.91;;;17.90;62.80
76484;BME280;65318;-33.924;18.406;2023-06-19T09:40:04;99066.14;;;18.48;61.70
76484;BME280;65318;-33.924;18.406;2023-06-19T09:42:29;99072.85;;;18.65;61.65
76484;BME280;65318;-33.924;18.406;2023-06-19T09:44:58;99072.38;;;18.81;61.28
76484;BME280;65318;-33.924;18.406;2023-06-19T09:47:22;99073.34;;;17.84;63.88
76484;BME280;65318;-33.924;18.406;2023-06-19T09:49:49;99072.20;;;17.84;63.65
76484;BME280;65318;-33.924;18.406;2023-06-19T09:52:09;99079.53;;;18.70;61.79
76484;BME280;65318;-33.924;18.406;2023-06-19T09:54:35;99078.92;;;18.39;62.34
76484;BME280;65318;-33.924;18.406;2023-06-19T09:57:00;99082.03;;;18.75;61.61
76484;BME280;65318;-33.924;18.406;2023-06-19T09:59:26;99080.61;;;18.75;61.73
76484;BME280;65318;-33.924;18.406;2023-06-19T10:01:51;99084.86;;;18.88;62.28
76484;BME280;65318;-33.924;18.406;2023-06-19T10:04:16;99085.00;;;18.21;62.83
76484;BME280;65318;-33.924;18.406;2023-06-19T10:06:46;99088.00;;;17.89;63.33
76484;BME280;65318;-33.924;18.406;2023-06-19T10:09:09;99082.68;;;18.39;62.55
76484;BME280;65318;-33.924;18.406;2023-06-19T10:11:46;99079.56;;;18.22;62.08
76484;BME280;65318;-33.924;18.406;2023-06-19T10:14:06;99092.68;;;18.28;61.90
76484;BME280;65318;-33.924;18.406;2023-06-19T10:16:24;99076.70;;;18.30;62.02
76484;BME280;65318;-33.924;18.406;2023-06-19T10:18:50;99083.81;;;18.65;60.54
76484;BME280;65318;-33.924;18.406;2023-06-19T10:21:17;99073.98;;;18.28;61.42
76484;BME280;65318;-33.924;18.406;2023-06-19T10:23:40;99077.71;;;19.00;60.81
76484;BME280;65318;-33.924;18.406;2023-06-19T10:26:06;99079.21;;;18.45;61.41
76484;BME280;65318;-33.924;18.406;2023-06-19T10:28:32;99081.34;;;18.56;60.98
76484;BME280;65318;-33.924;18.406;2023-06-19T10:30:57;99081.44;;;18.69;60.52
76484;BME280;65318;-33.924;18.406;2023-06-19T10:33:24;99076.22;;;18.59;60.16
76484;BME280;65318;-33.924;18.406;2023-06-19T10:35:48;99079.18;;;18.15;60.85
76484;BME280;65318;-33.924;18.406;2023-06-19T10:38:15;99080.20;;;18.77;59.78
76484;BME280;65318;-33.924;18.406;2023-06-19T10:40:38;99075.11;;;18.49;60.01
76484;BME280;65318;-33.924;18.406;2023-06-19T10:43:04;99067.54;;;18.50;59.70
76484;BME280;65318;-33.924;18.406;2023-06-19T10:45:29;99074.83;;;18.57;59.32
76484;BME280;65318;-33.924;18.406;2023-06-19T10:47:55;99068.53;;;18.68;59.43
76484;BME280;65318;-33.924;18.406;2023-06-19T10:50:21;99073.41;;;18.31;59.76
76484;BME280;65318;-33.924;18.406;2023-06-19T10:52:46;99083.76;;;18.30;59.65
76484;BME280;65318;-33.924;18.406;2023-06-19T10:55:12;99083.50;;;18.31;59.49
76484;BME280;65318;-33.924;18.406;2023-06-19T10:57:36;99085.42;;;18.23;60.11
76484;BME280;65318;-33.924;18.406;2023-06-19T11:00:03;99085.01;;;18.30;59.63
76484;BME280;65318;-33.924;18.406;2023-06-19T11:02:28;99077.00;;;18.07;60.26
76484;BME280;65318;-33.924;18.406;2023-06-19T11:04:54;99082.38;;;18.45;58.99
76484;BME280;65318;-33.924;18.406;2023-06-19T11:07:18;99082.85;;;18.35;58.73
76484;BME280;65318;-33.924;18.406;2023-06-19T11:09:43;99080.86;;;18.01;59.45
76484;BME280;65318;-33.924;18.406;2023-06-19T11:12:09;99083.33;;;18.89;58.41
76484;BME280;65318;-33.924;18.406;2023-06-19T11:14:34;99081.48;;;18.71;57.60
76484;BME280;65318;-33.924;18.406;2023-06-19T11:17:00;99085.62;;;18.69;55.80
76484;BME280;65318;-33.924;18.406;2023-06-19T11:19:30;99088.41;;;18.62;56.07
76484;BME280;65318;-33.924;18.406;2023-06-19T11:21:51;99089.07;;;18.33;56.23
76484;BME280;65318;-33.924;18.406;2023-06-19T11:24:16;99084.59;;;18.45;55.78
76484;BME280;65318;-33.924;18.406;2023-06-19T11:26:42;99088.02;;;18.93;54.90
76484;BME280;65318;-33.924;18.406;2023-06-19T11:29:15;99081.07;;;18.94;55.30
76484;BME280;65318;-33.924;18.406;2023-06-19T11:31:33;99080.40;;;19.22;55.24
76484;BME280;65318;-33.924;18.406;2023-06-19T11:33:59;99067.24;;;19.33;54.99
76484;BME280;65318;-33.924;18.406;2023-06-19T11:36:22;99071.31;;;18.67;55.99
76484;BME280;65318;-33.924;18.406;2023-06-19T11:38:48;99076.69;;;18.08;56.81
76484;BME280;65318;-33.924;18.406;2023-06-19T11:43:39;99077.18;;;18.93;54.80
76484;BME280;65318;-33.924;18.406;2023-06-19T11:46:06;99075.22;;;19.15;54.68
76484;BME280;65318;-33.924;18.406;2023-06-19T11:48:31;99076.07;;;19.00;54.56
76484;BME280;65318;-33.924;18.406;2023-06-19T11:50:56;99075.52;;;19.14;54.09
76484;BME280;65318;-33.924;18.406;2023-06-19T11:53:23;99078.25;;;18.77;54.98
76484;BME280;65318;-33.924;18.406;2023-06-19T11:55:47;99079.77;;;18.57;54.91
76484;BME280;65318;-33.924;18.406;2023-06-19T11:58:13;99080.36;;;18.89;55.26
76484;BME280;65318;-33.924;18.406;2023-06-19T12:00:39;99085.17;;;18.76;55.19
76484;BME280;65318;-33.924;18.406;2023-06-19T12:03:04;99090.63;;;18.98;55.29
76484;BME280;65318;-33.924;18.406;2023-06-19T12:05:29;99085.87;;;18.69;55.35
76484;BME280;65318;-33.924;18.406;2023-06-19T12:07:55;99085.63;;;18.66;55.38
76484;BME280;65318;-33.924;18.406;2023-06-19T12:10:20;99095.30;;;18.84;55.41
76484;BME280;65318;-33.924;18.406;2023-06-19T12:12:45;99087.87;;;19.23;54.83
76484;BME280;65318;-33.924;18.406;2023-06-19T12:15:11;99087.75;;;19.12;54.81
76484;BME280;65318;-33.924;18.406;2023-06-19T12:17:37;99082.84;;;19.48;54.28
76484;BME280;65318;-33.924;18.406;2023-06-19T12:20:02;99085.08;;;19.09;54.76
76484;BME280;65318;-33.924;18.406;2023-06-19T12:22:28;99087.06;;;18.86;54.33
76484;BME280;65318;-33.924;18.406;2023-06-19T12:24:53;99090.29;;;19.24;53.68
76484;BME280;65318;-33.924;18.406;2023-06-19T12:27:18;99077.55;;;18.93;54.24
76484;BME280;65318;-33.924;18.406;2023-06-19T12:29:44;99072.36;;;18.87;54.61
76484;BME280;65318;-33.924;18.406;2023-06-19T12:32:09;99075.52;;;19.10;53.27
76484;BME280;65318;-33.924;18.406;2023-06-19T12:34:35;99077.70;;;18.75;54.42
76484;BME280;65318;-33.924;18.406;2023-06-19T12:37:00;99088.09;;;18.21;55.42
76484;BME280;65318;-33.924;18.406;2023-06-19T12:39:26;99079.04;;;17.95;55.35